Terminal Aerodrome Forecast
Issued by NWS

Home | Current Version | Previous Version | Text Only | Print | Product List | Glossary On
Versions: 1 2 3 4 5 6 7 8 9 10 11 12 13 14
773
FTUS43 KEAX 282333
TAFMKC
TAF
KMKC 282333Z 2900/2924 03009KT P6SM OVC008
     FM290600 02011KT 3SM BR OVC002
     FM291200 05014KT 3SM RA BR OVC006
     FM291600 04017KT 2SM RA BR SCT003 OVC006=

USA.gov is the U.S. government's official web portal to all federal, state and local government web resources and services.